Stolt Sneland — ZCTY8 — position and weather

sailwx.info

Track history (hours):
 
Tides and Currents Weather Stations Pressure Air Temp Water Temp Dewpoint Dewpoint Depression Visibility Wind Speed Wind Dir Waves Ship Positions

Stolt Sneland

Last reported at 2017-Nov-20 00:20 UTC. Time now 2017-Nov-20 13:50 UTC.
Position S 29°53' E 031°03'.

Length 182 m; draft 10.1 m.

Type: Ship (hazmat cat A). MMSI: 319627000.

Date/timePositionNaut miles runAvg speedWind from/ knotsBaromVisibWave heightAir tempDewpointWater temp
2017-Nov-20 00:20S 29°53' E 031°03'0 0.0
2017-Nov-19 23:59S 29°53' E 031°03'0 0.0
2017-Nov-19 23:29S 29°53' E 031°03'0 0.0
2017-Nov-19 22:59S 29°53' E 031°03'0 0.0
2017-Nov-19 22:29S 29°53' E 031°03'0 0.0
2017-Nov-19 21:56S 29°53' E 031°03'0 0.0
2017-Nov-19 21:29S 29°53' E 031°03'0 0.0
2017-Nov-19 20:59S 29°53' E 031°03'0 0.0
2017-Nov-19 20:29S 29°53' E 031°03'0 0.0
2017-Nov-19 19:59S 29°53' E 031°03'0 0.0
2017-Nov-19 19:29S 29°53' E 031°03'0 0.0
2017-Nov-19 18:59S 29°53' E 031°03'0 0.0
2017-Nov-19 18:29S 29°53' E 031°03'0 0.0
2017-Nov-19 17:50S 29°53' E 031°03'0 0.0
2017-Nov-19 17:29S 29°53' E 031°03'0 0.0
2017-Nov-19 16:56S 29°53' E 031°03'0 0.0
2017-Nov-19 16:29S 29°53' E 031°03'0 0.0
2017-Nov-19 15:59S 29°53' E 031°03'0 0.0
2017-Nov-19 15:29S 29°53' E 031°03'0 0.0
2017-Nov-19 14:59S 29°53' E 031°03'0 0.0
2017-Nov-19 14:29S 29°53' E 031°03'0 0.0
2017-Nov-19 13:59S 29°53' E 031°03'0 0.0
2017-Nov-19 13:29S 29°53' E 031°03'0 0.0
2017-Nov-19 12:56S 29°53' E 031°03'0 0.0
2017-Nov-19 12:29S 29°53' E 031°03'0 0.0
2017-Nov-19 11:59S 29°53' E 031°03'0 0.0
2017-Nov-19 11:29S 29°53' E 031°03'0 0.0
2017-Nov-19 10:59S 29°53' E 031°03'0 0.0
2017-Nov-19 10:26S 29°53' E 031°03'0 0.0
2017-Nov-19 09:56S 29°53' E 031°03'0 0.0
2017-Nov-19 09:29S 29°53' E 031°03'0 0.0
2017-Nov-19 08:59S 29°53' E 031°03'0 0.0
2017-Nov-19 08:29S 29°53' E 031°03'0 0.0
2017-Nov-19 07:56S 29°53' E 031°03'0 0.0
2017-Nov-19 07:26S 29°53' E 031°03'0 0.0
2017-Nov-19 06:59S 29°53' E 031°03'0 0.0
2017-Nov-19 06:26S 29°53' E 031°03'0 0.0
2017-Nov-19 05:59S 29°53' E 031°03'0 0.0
2017-Nov-19 05:26S 29°53' E 031°03'0 0.0
2017-Nov-19 04:59S 29°53' E 031°03'0 0.0
2017-Nov-19 04:26S 29°53' E 031°03'0 0.0
2017-Nov-19 03:59S 29°53' E 031°03'0 0.0
2017-Nov-19 03:26S 29°53' E 031°03'0 0.0
2017-Nov-19 02:59S 29°53' E 031°03'0 0.0
2017-Nov-19 02:29S 29°53' E 031°03'0 0.0
2017-Nov-19 01:59S 29°53' E 031°03'0 0.0
2017-Nov-19 01:29S 29°53' E 031°03'0 0.0
2017-Nov-19 00:59S 29°53' E 031°03'0 0.0
2017-Nov-19 00:29S 29°53' E 031°03'0 0.0
2017-Nov-18 23:59S 29°53' E 031°03'0 0.0
2017-Nov-18 23:29S 29°53' E 031°03'0 0.0
2017-Nov-18 22:59S 29°53' E 031°03'0 0.0
2017-Nov-18 22:29S 29°53' E 031°03'0 0.0
2017-Nov-18 21:59S 29°53' E 031°03'0 0.0
2017-Nov-18 21:26S 29°53' E 031°03'0 0.0
2017-Nov-18 20:56S 29°53' E 031°03'0 0.0
2017-Nov-18 20:29S 29°53' E 031°03'0 0.0
2017-Nov-18 19:59S 29°53' E 031°03'0 0.0
2017-Nov-18 19:29S 29°53' E 031°03'0 0.0
2017-Nov-18 18:59S 29°53' E 031°03'0 0.0
2017-Nov-18 18:29S 29°53' E 031°03'0 0.0
2017-Nov-18 17:50S 29°53' E 031°03'0 0.0
2017-Nov-18 17:29S 29°53' E 031°03'0 0.0
2017-Nov-18 16:59S 29°53' E 031°03'0 0.0
2017-Nov-18 16:29S 29°53' E 031°03'20 0.7
2017-Nov-17 11:59S 29°48' E 031°25'0 0.6
2017-Nov-17 11:30S 29°48' E 031°25'0 0.7
2017-Nov-17 11:01S 29°47' E 031°25'1 1.1
2017-Nov-17 10:30S 29°47' E 031°25'1 1.1
2017-Nov-17 10:00S 29°46' E 031°25'1 1.2
2017-Nov-17 09:31S 29°46' E 031°25'2 3.2
2017-Nov-17 09:01S 29°44' E 031°25'1 1.6
2017-Nov-17 08:31S 29°43' E 031°25'1 1.7
2017-Nov-17 08:00S 29°42' E 031°25'3 5.4
2017-Nov-17 07:30S 29°45' E 031°24'3 5.5
2017-Nov-17 07:00S 29°47' E 031°23'2 3.5
2017-Nov-17 06:31S 29°49' E 031°22'1 1.1
2017-Nov-17 06:01S 29°49' E 031°22'1 1.2
2017-Nov-17 05:30S 29°48' E 031°22'1 1.2
2017-Nov-17 05:00S 29°47' E 031°22'1 1.2
2017-Nov-17 04:30S 29°47' E 031°22'1 1.2
2017-Nov-17 04:00S 29°46' E 031°22'0 1.0
2017-Nov-17 03:31S 29°46' E 031°22'1 1.3
2017-Nov-17 03:01S 29°45' E 031°22'0 0.6
2017-Nov-17 02:31S 29°45' E 031°22'0 0.7
2017-Nov-17 02:01S 29°45' E 031°22'1 1.1
2017-Nov-17 01:30S 29°44' E 031°22'0 0.9
2017-Nov-17 01:01S 29°44' E 031°21'0 0.6
2017-Nov-17 00:30S 29°43' E 031°21'0 0.6
2017-Nov-17 00:00S 29°43' E 031°21'0 0.2
2017-Nov-16 23:30S 29°43' E 031°21'0 0.5
2017-Nov-16 23:00S 29°43' E 031°21'1 2.3
2017-Nov-16 22:31S 29°44' E 031°22'1 1.8
2017-Nov-16 22:00S 29°43' E 031°21'1 1.5
2017-Nov-16 21:30S 29°43' E 031°21'1 1.1
2017-Nov-16 21:00S 29°42' E 031°21'1 1.3
2017-Nov-16 20:30S 29°41' E 031°21'1 1.2
2017-Nov-16 20:01S 29°41' E 031°21'1 1.1
2017-Nov-16 19:30S 29°40' E 031°21'1 1.5
2017-Nov-16 19:01S 29°39' E 031°21'1 1.5
2017-Nov-16 18:31S 29°39' E 031°21'3 5.1
2017-Nov-16 18:01S 29°41' E 031°19'5 9.2
2017-Nov-16 17:31S 29°45' E 031°17'4 8.6
2017-Nov-16 17:01S 29°49' E 031°14'5 9.8
2017-Nov-16 16:31S 29°53' E 031°12'510.7
2017-Nov-16 16:00S 29°58' E 031°13'511.0
2017-Nov-16 15:30S 30°04' E 031°11'611.0
2017-Nov-16 15:00S 30°09' E 031°09'510.2
2017-Nov-16 14:30S 30°14' E 031°07'5 9.9
2017-Nov-16 14:00S 30°18' E 031°06'5 9.8
2017-Nov-16 13:30S 30°23' E 031°05'5 9.6
2017-Nov-16 13:00S 30°28' E 031°03'4 9.1
2017-Nov-16 12:30S 30°32' E 031°01'  
Track history (hours):
 
Tides and Currents Weather Stations Pressure Air Temp Water Temp Dewpoint Dewpoint Depression Visibility Wind Speed Wind Dir Waves Ship Positions

Stolt Sneland

Last reported at 2017-Nov-20 00:20 UTC. Time now 2017-Nov-20 13:50 UTC.
Position S 29°53' E 031°03'.

Length 182 m; draft 10.1 m.

Type: Ship (hazmat cat A). MMSI: 319627000.

Date/timePositionNaut miles runAvg speedWind from/ knotsBaromVisibWave heightAir tempDewpointWater temp
2017-Nov-20 00:20S 29°53' E 031°03'0 0.0
2017-Nov-19 23:59S 29°53' E 031°03'0 0.0
2017-Nov-19 23:29S 29°53' E 031°03'0 0.0
2017-Nov-19 22:59S 29°53' E 031°03'0 0.0
2017-Nov-19 22:29S 29°53' E 031°03'0 0.0
2017-Nov-19 21:56S 29°53' E 031°03'0 0.0
2017-Nov-19 21:29S 29°53' E 031°03'0 0.0
2017-Nov-19 20:59S 29°53' E 031°03'0 0.0
2017-Nov-19 20:29S 29°53' E 031°03'0 0.0
2017-Nov-19 19:59S 29°53' E 031°03'0 0.0
2017-Nov-19 19:29S 29°53' E 031°03'0 0.0
2017-Nov-19 18:59S 29°53' E 031°03'0 0.0
2017-Nov-19 18:29S 29°53' E 031°03'0 0.0
2017-Nov-19 17:50S 29°53' E 031°03'0 0.0
2017-Nov-19 17:29S 29°53' E 031°03'0 0.0
2017-Nov-19 16:56S 29°53' E 031°03'0 0.0
2017-Nov-19 16:29S 29°53' E 031°03'0 0.0
2017-Nov-19 15:59S 29°53' E 031°03'0 0.0
2017-Nov-19 15:29S 29°53' E 031°03'0 0.0
2017-Nov-19 14:59S 29°53' E 031°03'0 0.0
2017-Nov-19 14:29S 29°53' E 031°03'0 0.0
2017-Nov-19 13:59S 29°53' E 031°03'0 0.0
2017-Nov-19 13:29S 29°53' E 031°03'0 0.0
2017-Nov-19 12:56S 29°53' E 031°03'0 0.0
2017-Nov-19 12:29S 29°53' E 031°03'0 0.0
2017-Nov-19 11:59S 29°53' E 031°03'0 0.0
2017-Nov-19 11:29S 29°53' E 031°03'0 0.0
2017-Nov-19 10:59S 29°53' E 031°03'0 0.0
2017-Nov-19 10:26S 29°53' E 031°03'0 0.0
2017-Nov-19 09:56S 29°53' E 031°03'0 0.0
2017-Nov-19 09:29S 29°53' E 031°03'0 0.0
2017-Nov-19 08:59S 29°53' E 031°03'0 0.0
2017-Nov-19 08:29S 29°53' E 031°03'0 0.0
2017-Nov-19 07:56S 29°53' E 031°03'0 0.0
2017-Nov-19 07:26S 29°53' E 031°03'0 0.0
2017-Nov-19 06:59S 29°53' E 031°03'0 0.0
2017-Nov-19 06:26S 29°53' E 031°03'0 0.0
2017-Nov-19 05:59S 29°53' E 031°03'0 0.0
2017-Nov-19 05:26S 29°53' E 031°03'0 0.0
2017-Nov-19 04:59S 29°53' E 031°03'0 0.0
2017-Nov-19 04:26S 29°53' E 031°03'0 0.0
2017-Nov-19 03:59S 29°53' E 031°03'0 0.0
2017-Nov-19 03:26S 29°53' E 031°03'0 0.0
2017-Nov-19 02:59S 29°53' E 031°03'0 0.0
2017-Nov-19 02:29S 29°53' E 031°03'0 0.0
2017-Nov-19 01:59S 29°53' E 031°03'0 0.0
2017-Nov-19 01:29S 29°53' E 031°03'0 0.0
2017-Nov-19 00:59S 29°53' E 031°03'0 0.0
2017-Nov-19 00:29S 29°53' E 031°03'0 0.0
2017-Nov-18 23:59S 29°53' E 031°03'0 0.0
2017-Nov-18 23:29S 29°53' E 031°03'0 0.0
2017-Nov-18 22:59S 29°53' E 031°03'0 0.0
2017-Nov-18 22:29S 29°53' E 031°03'0 0.0
2017-Nov-18 21:59S 29°53' E 031°03'0 0.0
2017-Nov-18 21:26S 29°53' E 031°03'0 0.0
2017-Nov-18 20:56S 29°53' E 031°03'0 0.0
2017-Nov-18 20:29S 29°53' E 031°03'0 0.0
2017-Nov-18 19:59S 29°53' E 031°03'0 0.0
2017-Nov-18 19:29S 29°53' E 031°03'0 0.0
2017-Nov-18 18:59S 29°53' E 031°03'0 0.0
2017-Nov-18 18:29S 29°53' E 031°03'0 0.0
2017-Nov-18 17:50S 29°53' E 031°03'0 0.0
2017-Nov-18 17:29S 29°53' E 031°03'0 0.0
2017-Nov-18 16:59S 29°53' E 031°03'0 0.0
2017-Nov-18 16:29S 29°53' E 031°03'20 0.7
2017-Nov-17 11:59S 29°48' E 031°25'0 0.6
2017-Nov-17 11:30S 29°48' E 031°25'0 0.7
2017-Nov-17 11:01S 29°47' E 031°25'1 1.1
2017-Nov-17 10:30S 29°47' E 031°25'1 1.1
2017-Nov-17 10:00S 29°46' E 031°25'1 1.2
2017-Nov-17 09:31S 29°46' E 031°25'2 3.2
2017-Nov-17 09:01S 29°44' E 031°25'1 1.6
2017-Nov-17 08:31S 29°43' E 031°25'1 1.7
2017-Nov-17 08:00S 29°42' E 031°25'3 5.4
2017-Nov-17 07:30S 29°45' E 031°24'3 5.5
2017-Nov-17 07:00S 29°47' E 031°23'2 3.5
2017-Nov-17 06:31S 29°49' E 031°22'1 1.1
2017-Nov-17 06:01S 29°49' E 031°22'1 1.2
2017-Nov-17 05:30S 29°48' E 031°22'1 1.2
2017-Nov-17 05:00S 29°47' E 031°22'1 1.2
2017-Nov-17 04:30S 29°47' E 031°22'1 1.2
2017-Nov-17 04:00S 29°46' E 031°22'0 1.0
2017-Nov-17 03:31S 29°46' E 031°22'1 1.3
2017-Nov-17 03:01S 29°45' E 031°22'0 0.6
2017-Nov-17 02:31S 29°45' E 031°22'0 0.7
2017-Nov-17 02:01S 29°45' E 031°22'1 1.1
2017-Nov-17 01:30S 29°44' E 031°22'0 0.9
2017-Nov-17 01:01S 29°44' E 031°21'0 0.6
2017-Nov-17 00:30S 29°43' E 031°21'0 0.6
2017-Nov-17 00:00S 29°43' E 031°21'0 0.2
2017-Nov-16 23:30S 29°43' E 031°21'0 0.5
2017-Nov-16 23:00S 29°43' E 031°21'1 2.3
2017-Nov-16 22:31S 29°44' E 031°22'1 1.8
2017-Nov-16 22:00S 29°43' E 031°21'1 1.5
2017-Nov-16 21:30S 29°43' E 031°21'1 1.1
2017-Nov-16 21:00S 29°42' E 031°21'1 1.3
2017-Nov-16 20:30S 29°41' E 031°21'1 1.2
2017-Nov-16 20:01S 29°41' E 031°21'1 1.1
2017-Nov-16 19:30S 29°40' E 031°21'1 1.5
2017-Nov-16 19:01S 29°39' E 031°21'1 1.5
2017-Nov-16 18:31S 29°39' E 031°21'3 5.1
2017-Nov-16 18:01S 29°41' E 031°19'5 9.2
2017-Nov-16 17:31S 29°45' E 031°17'4 8.6
2017-Nov-16 17:01S 29°49' E 031°14'5 9.8
2017-Nov-16 16:31S 29°53' E 031°12'510.7
2017-Nov-16 16:00S 29°58' E 031°13'511.0
2017-Nov-16 15:30S 30°04' E 031°11'611.0
2017-Nov-16 15:00S 30°09' E 031°09'510.2
2017-Nov-16 14:30S 30°14' E 031°07'5 9.9
2017-Nov-16 14:00S 30°18' E 031°06'5 9.8
2017-Nov-16 13:30S 30°23' E 031°05'5 9.6
2017-Nov-16 13:00S 30°28' E 031°03'4 9.1
2017-Nov-16 12:30S 30°32' E 031°01'  

Dump ship's entire track history